createdAt,value
2019-06-07T00:01:42.225Z,14.60
2019-06-07T00:04:13.474Z,14.60
2019-06-07T00:06:42.307Z,14.60
2019-06-07T00:09:12.697Z,14.70
2019-06-07T00:11:42.306Z,14.60
2019-06-07T00:14:14.682Z,14.60
2019-06-07T00:16:42.332Z,14.50
2019-06-07T00:19:12.075Z,14.40
2019-06-07T00:22:13.379Z,14.50
2019-06-07T00:24:14.361Z,14.50
2019-06-07T00:26:57.682Z,14.50
2019-06-07T00:29:16.742Z,14.60
2019-06-07T00:31:44.855Z,14.70
2019-06-07T00:34:16.381Z,14.70
2019-06-07T00:36:44.938Z,14.70
2019-06-07T00:39:18.260Z,14.70
2019-06-07T00:41:45.089Z,14.80
2019-06-07T00:44:15.104Z,14.80
2019-06-07T00:46:45.357Z,14.80
2019-06-07T00:49:28.961Z,14.80
2019-06-07T00:51:50.387Z,14.80
2019-06-07T00:54:19.517Z,14.80
2019-06-07T00:56:47.145Z,14.80
2019-06-07T00:59:19.167Z,14.80
2019-06-07T01:01:47.133Z,14.70
2019-06-07T01:04:19.455Z,14.60
2019-06-07T01:06:47.155Z,14.60
2019-06-07T01:09:17.738Z,14.50
2019-06-07T01:11:47.038Z,14.40
2019-06-07T01:14:20.305Z,14.40
2019-06-07T01:16:57.057Z,14.30
2019-06-07T01:19:18.899Z,14.20
2019-06-07T01:21:48.746Z,14.10
2019-06-07T01:24:17.899Z,14.10
2019-06-07T01:26:47.059Z,14.10
2019-06-07T01:29:17.706Z,14.10
2019-06-07T01:31:47.213Z,14.00
2019-06-07T01:34:16.363Z,13.90
2019-06-07T01:36:45.534Z,13.90
2019-06-07T01:39:14.693Z,13.90
2019-06-07T01:41:43.863Z,13.80
2019-06-07T01:44:13.055Z,13.70
2019-06-07T01:46:42.291Z,13.70
2019-06-07T01:49:11.449Z,13.70
2019-06-07T01:51:40.604Z,13.60
2019-06-07T01:54:49.153Z,13.60
2019-06-07T01:56:40.696Z,13.70
2019-06-07T01:59:10.145Z,13.60
2019-06-07T02:01:39.322Z,13.60
2019-06-07T02:04:08.495Z,13.70
2019-06-07T02:06:37.676Z,13.70
2019-06-07T02:09:07.604Z,13.70
2019-06-07T02:11:36.765Z,13.70
2019-06-07T02:14:06.254Z,13.70
2019-06-07T02:16:35.390Z,13.70
2019-06-07T02:19:04.575Z,13.80
2019-06-07T02:21:34.500Z,13.70
2019-06-07T02:24:04.094Z,13.70
2019-06-07T02:26:33.277Z,13.60
2019-06-07T02:29:02.532Z,13.50
2019-06-07T02:31:38.681Z,13.50
2019-06-07T02:34:02.626Z,13.60
2019-06-07T02:36:41.025Z,13.60
2019-06-07T02:39:06.000Z,13.60
2019-06-07T02:41:39.328Z,13.50
2019-06-07T02:44:07.261Z,13.50
2019-06-07T02:46:46.583Z,13.60
2019-06-07T02:49:07.293Z,13.60
2019-06-07T02:51:41.557Z,13.60
2019-06-07T02:54:07.353Z,13.60
2019-06-07T02:56:55.058Z,13.60
2019-06-07T02:59:08.590Z,13.60
2019-06-07T03:01:41.358Z,13.50
2019-06-07T03:04:08.682Z,13.50
2019-06-07T03:06:43.240Z,13.50
2019-06-07T03:09:09.112Z,13.60
2019-06-07T03:11:39.825Z,13.60
2019-06-07T03:14:09.356Z,13.70
2019-06-07T03:16:55.293Z,13.70
2019-06-07T03:19:34.732Z,13.70
2019-06-07T03:22:04.222Z,13.80
2019-06-07T03:24:36.241Z,13.80
2019-06-07T03:29:36.655Z,13.90
2019-06-07T03:32:05.940Z,14.00
2019-06-07T03:34:42.764Z,14.00
2019-06-07T03:37:06.073Z,14.10
2019-06-07T03:39:37.105Z,14.10
2019-06-07T03:42:08.517Z,14.20
2019-06-07T03:44:40.665Z,14.20
2019-06-07T03:47:08.309Z,14.20
2019-06-07T03:49:41.729Z,14.30
2019-06-07T03:52:08.647Z,14.30
2019-06-07T03:54:39.783Z,14.30
2019-06-07T03:57:08.835Z,14.20
2019-06-07T03:59:41.300Z,14.20
2019-06-07T04:02:09.057Z,14.20
2019-06-07T04:04:39.799Z,14.10
2019-06-07T04:07:09.205Z,14.10
2019-06-07T04:09:42.861Z,14.00
2019-06-07T04:12:10.255Z,14.00
2019-06-07T04:14:42.506Z,13.90
2019-06-07T04:17:10.293Z,14.00
2019-06-07T04:19:43.347Z,13.90
2019-06-07T04:22:10.500Z,14.00
2019-06-07T04:24:41.928Z,14.00
2019-06-07T04:27:10.611Z,14.10
2019-06-07T04:30:04.851Z,14.10
2019-06-07T04:32:10.807Z,14.10
2019-06-07T04:34:43.160Z,14.20
2019-06-07T04:37:12.031Z,14.20
2019-06-07T04:39:44.950Z,14.10
2019-06-07T04:42:12.761Z,14.10
2019-06-07T04:44:42.775Z,14.20
2019-06-07T04:47:13.225Z,14.20
2019-06-07T04:49:44.246Z,14.30
2019-06-07T04:52:13.639Z,14.30
2019-06-07T04:54:45.956Z,14.30
2019-06-07T04:57:13.658Z,14.30
2019-06-07T05:00:10.909Z,14.30
2019-06-07T05:02:13.680Z,14.30
2019-06-07T05:04:44.023Z,14.30
2019-06-07T05:07:13.433Z,14.50
2019-06-07T05:09:43.321Z,14.60
2019-06-07T05:12:12.778Z,14.50
2019-06-07T05:14:44.067Z,14.60
2019-06-07T05:17:12.892Z,14.50
2019-06-07T05:19:44.515Z,14.60
2019-06-07T05:22:13.074Z,14.70
2019-06-07T05:24:43.898Z,14.70
2019-06-07T05:27:13.411Z,14.90
2019-06-07T05:29:44.378Z,14.90
2019-06-07T05:32:13.587Z,14.90
2019-06-07T05:34:47.176Z,14.90
2019-06-07T05:37:13.625Z,14.90
2019-06-07T05:39:46.311Z,15.00
2019-06-07T05:42:14.559Z,15.20
2019-06-07T05:44:45.710Z,15.50
2019-06-07T05:47:14.616Z,15.70
2019-06-07T05:49:46.778Z,15.80
2019-06-07T05:52:14.684Z,15.80
2019-06-07T05:54:46.851Z,15.70
2019-06-07T05:57:14.865Z,15.60
2019-06-07T05:59:46.741Z,15.70
2019-06-07T06:02:22.540Z,15.80
2019-06-07T06:04:49.294Z,16.00
2019-06-07T06:07:18.857Z,16.20
2019-06-07T06:09:48.158Z,16.50
2019-06-07T06:12:33.890Z,16.90
2019-06-07T06:14:48.181Z,17.10
2019-06-07T06:17:17.357Z,17.50
2019-06-07T06:19:50.356Z,18.00
2019-06-07T06:22:17.400Z,18.20
2019-06-07T06:25:17.366Z,18.60
2019-06-07T06:27:55.612Z,18.90
2019-06-07T06:29:50.430Z,19.30
2019-06-07T06:34:53.649Z,19.60
2019-06-07T06:37:21.368Z,19.80
2019-06-07T06:39:50.524Z,20.00
2019-06-07T06:42:19.691Z,20.30
2019-06-07T06:44:53.675Z,20.80
2019-06-07T06:47:19.884Z,21.00
2019-06-07T06:49:53.977Z,21.30
2019-06-07T06:52:20.202Z,21.60
2019-06-07T06:54:59.383Z,21.90
2019-06-07T06:57:20.583Z,22.20
2019-06-07T06:59:52.504Z,22.50
2019-06-07T07:02:20.869Z,22.80
2019-06-07T07:04:53.516Z,22.70
2019-06-07T07:07:20.907Z,22.70
2019-06-07T07:09:54.743Z,22.60
2019-06-07T07:12:21.004Z,22.90
2019-06-07T07:14:52.974Z,23.60
2019-06-07T07:17:46.264Z,24.30
2019-06-07T07:19:52.999Z,24.90
2019-06-07T07:22:22.801Z,25.20
2019-06-07T07:24:54.732Z,25.60
2019-06-07T07:27:22.997Z,26.30
2019-06-07T07:30:10.202Z,26.40
2019-06-07T07:32:23.047Z,26.10
2019-06-07T07:34:59.625Z,26.20
2019-06-07T07:37:23.109Z,26.00
2019-06-07T07:40:00.695Z,26.00
2019-06-07T07:42:24.312Z,26.50
2019-06-07T07:44:56.528Z,27.20
2019-06-07T07:47:24.335Z,27.60
2019-06-07T07:49:58.543Z,27.90
2019-06-07T07:52:24.395Z,28.00
2019-06-07T07:54:57.754Z,28.70
2019-06-07T07:57:24.712Z,28.60
2019-06-07T08:00:06.012Z,28.70
2019-06-07T08:02:24.893Z,28.60
2019-06-07T08:05:20.233Z,28.60
2019-06-07T08:07:25.018Z,28.10
2019-06-07T08:09:57.755Z,28.30
2019-06-07T08:12:25.127Z,28.40
2019-06-07T08:14:58.491Z,28.10
2019-06-07T08:17:25.240Z,27.90
2019-06-07T08:19:57.318Z,28.10
2019-06-07T08:22:25.328Z,28.80
2019-06-07T08:24:55.995Z,29.80
2019-06-07T08:27:26.928Z,29.20
2019-06-07T08:30:18.466Z,29.00
2019-06-07T08:32:27.191Z,28.90
2019-06-07T08:35:02.389Z,29.40
2019-06-07T08:38:13.453Z,29.60
2019-06-07T08:40:01.067Z,29.90
2019-06-07T08:42:36.813Z,30.50
2019-06-07T08:45:03.737Z,31.50
2019-06-07T08:47:30.816Z,31.10
2019-06-07T08:50:07.095Z,31.00
2019-06-07T08:52:31.018Z,31.70
2019-06-07T08:55:04.791Z,31.50
2019-06-07T08:57:31.205Z,30.70
2019-06-07T09:00:16.029Z,30.40
2019-06-07T09:02:31.643Z,30.80
2019-06-07T09:05:11.209Z,32.00
2019-06-07T09:07:32.771Z,32.80
2019-06-07T09:10:09.538Z,33.00
2019-06-07T09:12:35.007Z,33.20
2019-06-07T09:15:20.159Z,32.60
2019-06-07T09:17:37.204Z,31.60
2019-06-07T09:20:28.832Z,31.30
2019-06-07T09:22:38.108Z,31.10
2019-06-07T09:25:19.671Z,31.80
2019-06-07T09:27:38.335Z,32.80
2019-06-07T09:30:16.304Z,33.90
2019-06-07T09:32:39.901Z,34.00
2019-06-07T09:35:16.441Z,34.30
2019-06-07T09:38:04.218Z,34.60
2019-06-07T09:40:24.840Z,34.90
2019-06-07T09:42:41.777Z,34.60
2019-06-07T09:45:13.955Z,33.80
2019-06-07T09:47:41.938Z,33.70
2019-06-07T09:50:12.518Z,33.90
2019-06-07T09:52:58.084Z,34.50
2019-06-07T09:55:23.511Z,34.50
2019-06-07T09:57:43.565Z,35.20
2019-06-07T10:00:39.263Z,35.40
2019-06-07T10:02:46.341Z,35.90
2019-06-07T10:05:15.672Z,35.80
2019-06-07T10:08:00.020Z,34.70
2019-06-07T10:12:46.581Z,34.80
2019-06-07T10:15:17.581Z,35.10
2019-06-07T10:17:46.871Z,35.60
2019-06-07T10:20:18.291Z,35.30
2019-06-07T10:22:47.631Z,34.90
2019-06-07T10:25:16.935Z,33.90
2019-06-07T10:27:46.120Z,33.70
2019-06-07T10:30:15.887Z,34.00
2019-06-07T10:32:45.092Z,35.10
2019-06-07T10:35:16.448Z,35.90
2019-06-07T10:37:45.143Z,35.50
2019-06-07T10:40:14.383Z,35.60
2019-06-07T10:42:43.696Z,35.50
2019-06-07T10:45:13.512Z,36.00
2019-06-07T10:47:42.684Z,36.30
2019-06-07T10:50:12.295Z,36.50
2019-06-07T10:52:41.643Z,36.90
2019-06-07T10:55:10.811Z,36.90
2019-06-07T10:57:40.011Z,36.70
2019-06-07T11:00:11.521Z,36.70
2019-06-07T11:02:40.931Z,37.00
2019-06-07T11:05:10.283Z,37.50
2019-06-07T11:07:43.817Z,38.20
2019-06-07T11:10:19.038Z,38.20
2019-06-07T11:12:45.268Z,38.50
2019-06-07T11:15:14.975Z,38.00
2019-06-07T11:17:44.357Z,37.30
2019-06-07T11:20:15.629Z,37.90
2019-06-07T11:22:45.389Z,38.30
2019-06-07T11:25:14.767Z,38.90
2019-06-07T11:27:44.231Z,38.50
2019-06-07T11:30:14.569Z,38.60
2019-06-07T11:32:45.515Z,39.70
2019-06-07T11:35:15.520Z,40.40
2019-06-07T11:37:44.795Z,40.70
2019-06-07T11:40:33.681Z,41.00
2019-06-07T11:42:46.953Z,41.20
2019-06-07T11:45:16.121Z,40.10
2019-06-07T11:47:45.290Z,39.60
2019-06-07T11:50:15.780Z,40.20
2019-06-07T11:52:46.486Z,40.40
2019-06-07T11:55:19.106Z,40.00
2019-06-07T11:57:46.949Z,39.30
2019-06-07T12:00:18.403Z,39.80
2019-06-07T12:02:47.779Z,40.70
2019-06-07T12:05:19.799Z,40.70
2019-06-07T12:07:47.854Z,40.50
2019-06-07T12:10:21.157Z,41.50
2019-06-07T12:12:49.008Z,41.70
2019-06-07T12:15:19.307Z,40.70
2019-06-07T12:17:48.759Z,39.80
2019-06-07T12:20:20.464Z,40.00
2019-06-07T12:22:48.956Z,40.30
2019-06-07T12:25:21.536Z,40.70
2019-06-07T12:27:50.512Z,41.40
2019-06-07T12:30:27.543Z,41.00
2019-06-07T12:32:52.188Z,41.50
2019-06-07T12:35:21.897Z,41.10
2019-06-07T12:37:51.209Z,41.10
2019-06-07T12:40:30.237Z,41.00
2019-06-07T12:42:51.354Z,41.00
2019-06-07T12:45:41.942Z,40.40
2019-06-07T12:47:51.442Z,40.40
2019-06-07T12:50:21.665Z,41.10
2019-06-07T12:52:51.434Z,41.00
2019-06-07T12:55:22.691Z,40.30
2019-06-07T12:57:51.783Z,39.60
2019-06-07T13:00:22.267Z,38.80
2019-06-07T13:02:52.707Z,38.90
2019-06-07T13:05:21.875Z,38.30
2019-06-07T13:07:51.058Z,38.10
2019-06-07T13:10:20.215Z,38.20
2019-06-07T13:12:49.364Z,39.30
2019-06-07T13:15:21.557Z,40.00
2019-06-07T13:17:51.619Z,40.30
2019-06-07T13:20:22.677Z,39.70
2019-06-07T13:22:52.124Z,38.90
2019-06-07T13:25:23.101Z,39.30
2019-06-07T13:27:52.213Z,40.00
2019-06-07T13:30:23.271Z,39.80
2019-06-07T13:32:52.296Z,38.90
2019-06-07T13:35:22.425Z,38.10
2019-06-07T13:37:52.302Z,37.90
2019-06-07T13:40:28.923Z,37.90
2019-06-07T13:42:58.090Z,38.00
2019-06-07T13:45:28.064Z,38.70
2019-06-07T13:47:57.988Z,38.10
2019-06-07T13:50:28.405Z,38.10
2019-06-07T13:52:58.165Z,38.40
2019-06-07T13:55:27.994Z,38.80
2019-06-07T13:57:57.329Z,39.00
2019-06-07T14:00:26.804Z,39.50
2019-06-07T14:02:56.092Z,39.20
2019-06-07T14:05:27.105Z,39.20
2019-06-07T14:07:56.156Z,38.90
2019-06-07T14:10:25.588Z,38.10
2019-06-07T14:12:54.906Z,37.40
2019-06-07T14:15:24.392Z,37.30
2019-06-07T14:17:54.452Z,36.50
2019-06-07T14:20:26.643Z,36.70
2019-06-07T14:22:55.182Z,37.10
2019-06-07T14:25:27.199Z,37.00
2019-06-07T14:27:56.616Z,36.90
2019-06-07T14:30:26.053Z,37.00
2019-06-07T14:32:55.327Z,36.70
2019-06-07T14:35:26.713Z,36.30
2019-06-07T14:37:56.288Z,35.60
2019-06-07T14:40:25.498Z,34.80
2019-06-07T14:42:54.658Z,34.70
2019-06-07T14:45:23.809Z,34.90
2019-06-07T14:47:53.056Z,35.50
2019-06-07T14:50:22.226Z,36.10
2019-06-07T14:52:54.671Z,36.70
2019-06-07T14:55:25.133Z,37.10
2019-06-07T14:57:54.473Z,36.90
2019-06-07T15:00:38.925Z,36.30
2019-06-07T15:03:08.142Z,35.20
2019-06-07T15:05:37.311Z,34.70
2019-06-07T15:08:06.680Z,35.10
2019-06-07T15:10:35.910Z,35.30
2019-06-07T15:13:05.210Z,35.10
2019-06-07T15:15:34.647Z,35.00
2019-06-07T15:18:04.336Z,34.30
2019-06-07T15:20:34.104Z,33.10
2019-06-07T15:23:03.455Z,33.10
2019-06-07T15:25:33.264Z,33.30
2019-06-07T15:28:02.905Z,33.20
2019-06-07T15:30:33.584Z,32.80
2019-06-07T15:33:03.064Z,33.20
2019-06-07T15:35:32.329Z,33.60
2019-06-07T15:38:03.179Z,33.90
2019-06-07T15:40:33.151Z,34.00
2019-06-07T15:43:02.493Z,33.90
2019-06-07T15:45:33.665Z,33.30
2019-06-07T15:48:02.931Z,33.20
2019-06-07T15:50:32.342Z,32.40
2019-06-07T15:53:01.557Z,32.20
2019-06-07T15:55:33.181Z,32.20
2019-06-07T15:58:01.643Z,32.10
2019-06-07T16:00:31.352Z,32.00
2019-06-07T16:03:01.891Z,31.90
2019-06-07T16:05:31.881Z,31.40
2019-06-07T16:08:01.259Z,30.80
2019-06-07T16:10:30.505Z,30.20
2019-06-07T16:13:00.963Z,29.80
2019-06-07T16:15:33.030Z,29.50
2019-06-07T16:18:02.821Z,29.20
2019-06-07T16:20:35.150Z,28.70
2019-06-07T16:23:04.812Z,28.60
2019-06-07T16:25:34.039Z,28.50
2019-06-07T16:28:06.486Z,28.40
2019-06-07T16:30:36.336Z,28.40
2019-06-07T16:33:05.570Z,28.40
2019-06-07T16:35:35.023Z,28.40
2019-06-07T16:38:04.627Z,28.30
2019-06-07T16:40:33.763Z,28.10
2019-06-07T16:43:16.757Z,28.10
2019-06-07T16:45:33.827Z,28.10
2019-06-07T16:48:03.054Z,28.10
2019-06-07T16:50:32.347Z,28.10
2019-06-07T16:53:01.513Z,28.00
2019-06-07T16:55:30.680Z,27.90
2019-06-07T16:57:59.892Z,27.80
2019-06-07T17:00:29.123Z,27.70
2019-06-07T17:02:58.411Z,27.50
2019-06-07T17:05:27.674Z,27.40
2019-06-07T17:07:56.845Z,27.40
2019-06-07T17:10:26.078Z,27.40
2019-06-07T17:12:55.245Z,27.40
2019-06-07T17:15:24.535Z,27.40
2019-06-07T17:17:53.735Z,27.40
2019-06-07T17:20:22.938Z,27.50
2019-06-07T17:22:52.186Z,27.30
2019-06-07T17:25:21.345Z,27.20
2019-06-07T17:27:50.511Z,27.20
2019-06-07T17:30:20.358Z,27.10
2019-06-07T17:32:57.613Z,27.00
2019-06-07T17:35:20.446Z,27.00
2019-06-07T17:37:51.380Z,27.00
2019-06-07T17:40:20.559Z,26.90
2019-06-07T17:42:50.906Z,26.90
2019-06-07T17:45:20.417Z,27.00
2019-06-07T17:47:50.008Z,27.00
2019-06-07T17:50:19.234Z,26.90
2019-06-07T17:52:48.446Z,26.90
2019-06-07T17:55:17.700Z,26.80
2019-06-07T17:57:46.863Z,26.70
2019-06-07T18:00:33.693Z,26.60
2019-06-07T18:02:48.805Z,26.60
2019-06-07T18:05:18.207Z,26.50
2019-06-07T18:07:53.731Z,26.40
2019-06-07T18:10:37.616Z,26.40
2019-06-07T18:13:07.297Z,26.30
2019-06-07T18:15:41.289Z,26.30
2019-06-07T18:18:10.533Z,26.20
2019-06-07T18:20:39.812Z,26.10
2019-06-07T18:23:09.089Z,26.10
2019-06-07T18:25:38.315Z,26.00
2019-06-07T18:28:07.493Z,25.90
2019-06-07T18:30:36.970Z,25.90
2019-06-07T18:33:07.335Z,25.80
2019-06-07T18:35:37.483Z,25.70
2019-06-07T18:38:08.593Z,25.70
2019-06-07T18:40:37.702Z,25.70
2019-06-07T18:43:06.972Z,25.60
2019-06-07T18:45:36.325Z,25.40
2019-06-07T18:48:06.079Z,25.40
2019-06-07T18:50:35.933Z,25.30
2019-06-07T18:53:05.308Z,25.30
2019-06-07T18:55:34.620Z,25.30
2019-06-07T18:58:03.863Z,25.30
2019-06-07T19:00:33.051Z,25.30
2019-06-07T19:03:02.294Z,25.30
2019-06-07T19:05:31.501Z,25.20
2019-06-07T19:08:00.698Z,25.20
2019-06-07T19:10:29.992Z,25.20
2019-06-07T19:13:00.486Z,25.20
2019-06-07T19:15:31.083Z,25.10
2019-06-07T19:18:00.908Z,25.00
2019-06-07T19:20:30.496Z,24.90
2019-06-07T19:23:00.555Z,24.80
2019-06-07T19:25:29.909Z,24.70
2019-06-07T19:27:59.289Z,24.60
2019-06-07T19:30:28.642Z,24.50
2019-06-07T19:32:59.536Z,24.50
2019-06-07T19:35:28.746Z,24.50
2019-06-07T19:37:58.046Z,24.50
2019-06-07T19:40:27.191Z,24.40
2019-06-07T19:42:56.553Z,24.30
2019-06-07T19:45:30.456Z,24.20
2019-06-07T19:47:56.818Z,24.00
2019-06-07T19:50:26.012Z,23.90
2019-06-07T19:52:55.185Z,23.80
2019-06-07T19:55:24.648Z,23.70
2019-06-07T19:57:55.403Z,23.60
2019-06-07T20:00:24.875Z,23.50
2019-06-07T20:02:54.061Z,23.30
2019-06-07T20:05:23.229Z,23.30
2019-06-07T20:07:52.536Z,23.30
2019-06-07T20:10:21.718Z,23.40
2019-06-07T20:12:50.907Z,23.30
2019-06-07T20:15:28.664Z,23.30
2019-06-07T20:17:51.032Z,23.40
2019-06-07T20:20:20.466Z,23.40
2019-06-07T20:22:49.655Z,23.30
2019-06-07T20:25:19.946Z,23.30
2019-06-07T20:27:49.587Z,23.20
2019-06-07T20:30:18.790Z,23.10
2019-06-07T20:32:47.949Z,23.00
2019-06-07T20:35:17.150Z,23.00
2019-06-07T20:37:46.373Z,23.00
2019-06-07T20:40:24.273Z,23.10
2019-06-07T20:42:46.683Z,23.20
2019-06-07T20:45:15.883Z,23.30
2019-06-07T20:47:45.027Z,23.40
2019-06-07T20:50:14.570Z,23.30
2019-06-07T20:52:43.728Z,23.30
2019-06-07T20:55:12.916Z,23.30
2019-06-07T20:57:42.087Z,23.30
2019-06-07T21:00:17.255Z,23.20
2019-06-07T21:02:42.108Z,23.20
2019-06-07T21:05:11.290Z,23.10
2019-06-07T21:07:40.465Z,23.00
2019-06-07T21:10:10.649Z,22.60
2019-06-07T21:12:40.187Z,21.80
2019-06-07T21:15:12.757Z,21.20
2019-06-07T21:17:40.701Z,20.80
2019-06-07T21:20:13.973Z,20.30
2019-06-07T21:22:41.195Z,20.10
2019-06-07T21:25:11.697Z,19.90
2019-06-07T21:27:41.143Z,19.80
2019-06-07T21:30:11.623Z,19.60
2019-06-07T21:32:41.228Z,19.40
2019-06-07T21:35:10.470Z,19.00
2019-06-07T21:37:39.712Z,18.90
2019-06-07T21:40:10.205Z,18.70
2019-06-07T21:42:39.582Z,18.40
2019-06-07T21:45:09.810Z,18.20
2019-06-07T21:47:39.630Z,18.10
2019-06-07T21:50:08.982Z,18.00
2019-06-07T21:52:38.243Z,18.00
2019-06-07T21:55:09.082Z,17.80
2019-06-07T21:57:38.669Z,17.80
2019-06-07T22:00:15.379Z,17.50
2019-06-07T22:02:46.161Z,17.50
2019-06-07T22:05:15.458Z,17.40
2019-06-07T22:07:44.643Z,17.30
2019-06-07T22:10:14.895Z,17.10
2019-06-07T22:12:44.049Z,17.10
2019-06-07T22:15:31.169Z,17.10
2019-06-07T22:17:44.288Z,17.00
2019-06-07T22:20:14.678Z,16.90
2019-06-07T22:22:44.124Z,16.90
2019-06-07T22:25:13.419Z,17.00
2019-06-07T22:27:42.634Z,16.90
2019-06-07T22:30:12.576Z,16.90
2019-06-07T22:32:41.833Z,16.90
2019-06-07T22:35:11.209Z,16.90
2019-06-07T22:37:40.434Z,17.00
2019-06-07T22:40:10.685Z,16.90
2019-06-07T22:42:40.079Z,16.80
2019-06-07T22:45:10.878Z,16.70
2019-06-07T22:47:40.320Z,16.70
2019-06-07T22:50:10.661Z,16.70
2019-06-07T22:52:40.158Z,16.70
2019-06-07T22:55:10.135Z,16.80
2019-06-07T22:57:57.815Z,16.80
2019-06-07T23:00:28.722Z,16.80
2019-06-07T23:02:57.895Z,16.80
2019-06-07T23:05:28.169Z,16.70
2019-06-07T23:07:57.509Z,16.70
2019-06-07T23:10:26.727Z,16.60
2019-06-07T23:12:55.927Z,16.50
2019-06-07T23:15:25.098Z,16.60
2019-06-07T23:17:55.369Z,16.60
2019-06-07T23:20:24.525Z,16.50
2019-06-07T23:22:53.676Z,16.50
2019-06-07T23:25:24.548Z,16.50
2019-06-07T23:27:53.696Z,16.40
2019-06-07T23:30:22.855Z,16.40
2019-06-07T23:32:52.105Z,16.40
2019-06-07T23:35:21.317Z,16.40
2019-06-07T23:37:50.653Z,16.50
2019-06-07T23:40:21.562Z,16.50
2019-06-07T23:42:50.970Z,16.50
2019-06-07T23:45:21.578Z,16.50
2019-06-07T23:47:51.083Z,16.50
2019-06-07T23:50:20.306Z,16.50
2019-06-07T23:52:49.461Z,16.50
2019-06-07T23:55:19.986Z,16.40
2019-06-07T23:57:49.349Z,16.50
